createdAt,value
2022-11-23T00:00:41.229Z,11.06
2022-11-23T00:03:21.818Z,11.02
2022-11-23T00:05:48.892Z,10.85
2022-11-23T00:08:22.321Z,10.64
2022-11-23T00:11:05.615Z,10.96
2022-11-23T00:13:38.796Z,10.89
2022-11-23T00:16:32.579Z,10.42
2022-11-23T00:19:02.670Z,10.27
2022-11-23T00:24:24.153Z,10.20
2022-11-23T00:26:57.235Z,9.99
2022-11-23T00:29:32.515Z,9.92
2022-11-23T00:32:10.468Z,10.35
2022-11-23T00:34:42.500Z,10.18
2022-11-23T00:37:12.134Z,10.39
2022-11-23T00:39:52.118Z,10.26
2022-11-23T00:42:20.761Z,10.66
2022-11-23T00:44:55.725Z,10.20
2022-11-23T00:47:40.408Z,10.84
2022-11-23T00:50:09.582Z,10.42
2022-11-23T00:52:39.989Z,10.52
2022-11-23T00:55:13.527Z,10.63
2022-11-23T00:57:43.777Z,10.91
2022-11-23T01:00:17.471Z,10.83
2022-11-23T01:02:45.946Z,10.75
2022-11-23T01:05:16.925Z,10.66
2022-11-23T01:07:54.111Z,10.98
2022-11-23T01:10:24.570Z,10.88
2022-11-23T01:12:54.952Z,8.63
2022-11-23T01:15:46.924Z,10.95
2022-11-23T01:18:19.871Z,10.08
2022-11-23T01:20:52.900Z,10.17
2022-11-23T01:23:32.116Z,10.58
2022-11-23T01:26:13.449Z,10.40
2022-11-23T01:28:42.780Z,9.19
2022-11-23T01:31:14.215Z,10.28
2022-11-23T01:33:53.602Z,10.79
2022-11-23T01:36:34.316Z,11.25
2022-11-23T01:39:15.061Z,10.39
2022-11-23T01:41:54.338Z,11.05
2022-11-23T01:44:27.399Z,11.49
2022-11-23T01:47:05.458Z,10.97
2022-11-23T01:49:48.756Z,10.65
2022-11-23T01:52:27.857Z,11.86
2022-11-23T01:55:06.883Z,11.57
2022-11-23T01:57:44.297Z,12.00
2022-11-23T02:00:13.651Z,11.97
2022-11-23T02:03:00.743Z,11.94
2022-11-23T02:05:40.232Z,10.92
2022-11-23T02:08:15.319Z,10.92
2022-11-23T02:10:48.098Z,10.91
2022-11-23T02:13:18.324Z,10.79
2022-11-23T02:15:49.686Z,10.22
2022-11-23T02:18:27.513Z,10.36
2022-11-23T02:20:57.965Z,9.82
2022-11-23T02:23:32.593Z,10.20
2022-11-23T02:26:06.237Z,9.94
2022-11-23T02:29:03.260Z,10.04
2022-11-23T02:31:43.231Z,9.80
2022-11-23T02:34:12.394Z,10.44
2022-11-23T02:37:07.285Z,10.22
2022-11-23T02:39:43.716Z,10.63
2022-11-23T02:45:03.896Z,9.71
2022-11-23T02:47:33.652Z,10.25
2022-11-23T02:50:09.765Z,10.79
2022-11-23T02:52:40.351Z,11.01
2022-11-23T02:55:12.156Z,10.99
2022-11-23T02:57:43.406Z,11.24
2022-11-23T03:00:19.052Z,9.63
2022-11-23T03:02:46.852Z,9.97
2022-11-23T03:05:20.858Z,10.04
2022-11-23T03:07:50.171Z,9.88
2022-11-23T03:10:24.246Z,10.28
2022-11-23T03:12:54.718Z,10.42
2022-11-23T03:15:30.066Z,10.72
2022-11-23T03:17:58.329Z,10.96
2022-11-23T03:20:40.538Z,11.07
2022-11-23T03:23:08.181Z,11.36
2022-11-23T03:25:51.527Z,11.41
2022-11-23T03:28:21.518Z,8.64
2022-11-23T03:30:49.048Z,10.08
2022-11-23T03:33:23.364Z,10.52
2022-11-23T03:36:01.211Z,10.71
2022-11-23T03:38:28.996Z,9.48
2022-11-23T03:41:11.598Z,10.55
2022-11-23T03:43:45.179Z,10.65
2022-11-23T03:46:19.728Z,10.63
2022-11-23T03:51:31.855Z,10.96
2022-11-23T03:54:13.210Z,10.63
2022-11-23T03:56:47.006Z,11.13
2022-11-23T03:59:16.518Z,11.34
2022-11-23T04:01:53.822Z,11.04
2022-11-23T04:04:28.012Z,11.26
2022-11-23T04:07:01.769Z,10.94
2022-11-23T04:09:35.501Z,10.64
2022-11-23T04:12:06.286Z,10.50
2022-11-23T04:14:40.259Z,10.51
2022-11-23T04:17:21.260Z,10.84
2022-11-23T04:19:52.003Z,9.70
2022-11-23T04:22:29.555Z,9.86
2022-11-23T04:25:08.170Z,9.76
2022-11-23T04:27:44.732Z,9.87
2022-11-23T04:30:17.719Z,10.13
2022-11-23T04:32:52.427Z,10.41
2022-11-23T04:35:32.219Z,10.29
2022-11-23T04:38:02.216Z,9.96
2022-11-23T04:40:33.904Z,10.35
2022-11-23T04:43:02.120Z,10.49
2022-11-23T04:45:44.467Z,9.50
2022-11-23T04:48:15.723Z,9.40
2022-11-23T04:50:47.180Z,10.09
2022-11-23T04:53:27.102Z,10.81
2022-11-23T04:56:05.908Z,10.78
2022-11-23T04:58:38.813Z,10.60
2022-11-23T05:01:11.225Z,10.54
2022-11-23T05:03:45.631Z,10.19
2022-11-23T05:06:17.784Z,9.96
2022-11-23T05:08:55.981Z,9.75
2022-11-23T05:11:28.924Z,10.40
2022-11-23T05:13:58.761Z,8.20
2022-11-23T05:16:31.638Z,8.73
2022-11-23T05:19:02.361Z,9.37
2022-11-23T05:21:33.032Z,9.69
2022-11-23T05:24:03.635Z,10.03
2022-11-23T05:26:37.465Z,10.00
2022-11-23T05:29:12.517Z,10.15
2022-11-23T05:31:45.908Z,10.28
2022-11-23T05:34:17.519Z,10.23
2022-11-23T05:36:49.076Z,10.21
2022-11-23T05:39:23.334Z,10.40
2022-11-23T05:42:09.197Z,11.09
2022-11-23T05:44:38.491Z,10.74
2022-11-23T05:47:12.636Z,10.80
2022-11-23T05:49:47.821Z,10.78
2022-11-23T05:52:23.261Z,11.00
2022-11-23T05:54:57.737Z,10.82
2022-11-23T05:57:25.543Z,10.72
2022-11-23T05:59:53.932Z,10.70
2022-11-23T06:02:24.538Z,11.05
2022-11-23T06:04:59.963Z,10.52
2022-11-23T06:07:38.330Z,9.53
2022-11-23T06:10:19.689Z,9.49
2022-11-23T06:12:51.450Z,9.68
2022-11-23T06:15:19.566Z,9.75
2022-11-23T06:18:02.045Z,10.16
2022-11-23T06:20:36.764Z,10.47
2022-11-23T06:23:08.516Z,11.34
2022-11-23T06:25:41.608Z,10.80
2022-11-23T06:28:11.662Z,10.51
2022-11-23T06:30:42.219Z,10.74
2022-11-23T06:33:16.478Z,10.83
2022-11-23T06:36:02.367Z,11.04
2022-11-23T06:38:31.441Z,9.42
2022-11-23T06:41:06.748Z,10.79
2022-11-23T06:43:36.536Z,10.81
2022-11-23T06:46:14.712Z,10.73
2022-11-23T06:48:46.435Z,10.84
2022-11-23T06:51:20.111Z,11.24
2022-11-23T06:53:59.078Z,11.32
2022-11-23T06:56:27.781Z,11.49
2022-11-23T06:58:55.696Z,11.70
2022-11-23T07:01:35.678Z,11.90
2022-11-23T07:04:13.487Z,11.86
2022-11-23T07:06:45.564Z,11.84
2022-11-23T07:09:14.853Z,10.84
2022-11-23T07:11:49.122Z,11.32
2022-11-23T07:17:04.794Z,11.35
2022-11-23T07:19:48.929Z,11.17
2022-11-23T07:22:27.123Z,12.06
2022-11-23T07:25:11.393Z,12.16
2022-11-23T07:27:46.333Z,12.55
2022-11-23T07:30:16.495Z,12.26
2022-11-23T07:32:56.531Z,12.31
2022-11-23T07:35:30.012Z,12.41
2022-11-23T07:37:57.984Z,10.63
2022-11-23T07:40:27.062Z,8.87
2022-11-23T07:43:09.086Z,10.26
2022-11-23T07:45:37.457Z,11.96
2022-11-23T07:48:12.506Z,12.33
2022-11-23T07:50:42.314Z,12.83
2022-11-23T07:53:15.452Z,12.61
2022-11-23T07:55:55.250Z,12.86
2022-11-23T07:58:26.684Z,12.59
2022-11-23T08:01:02.680Z,13.28
2022-11-23T08:03:40.710Z,12.91
2022-11-23T08:06:24.959Z,12.77
2022-11-23T08:08:56.241Z,12.99
2022-11-23T08:11:24.879Z,12.97
2022-11-23T08:13:55.028Z,14.37
2022-11-23T08:16:34.097Z,13.76
2022-11-23T08:19:01.497Z,14.00
2022-11-23T08:21:40.782Z,14.35
2022-11-23T08:24:18.670Z,14.69
2022-11-23T08:26:47.083Z,15.69
2022-11-23T08:29:15.276Z,16.01
2022-11-23T08:31:43.990Z,15.24
2022-11-23T08:34:24.559Z,15.35
2022-11-23T08:36:55.871Z,15.13
2022-11-23T08:39:27.307Z,15.32
2022-11-23T08:41:58.911Z,15.11
2022-11-23T08:44:26.548Z,15.30
2022-11-23T08:46:59.000Z,15.15
2022-11-23T08:49:29.017Z,15.07
2022-11-23T08:52:05.447Z,14.11
2022-11-23T08:54:45.579Z,14.18
2022-11-23T08:57:14.225Z,14.47
2022-11-23T08:59:44.726Z,15.48
2022-11-23T09:02:20.710Z,14.73
2022-11-23T09:05:08.185Z,15.33
2022-11-23T09:07:41.672Z,14.81
2022-11-23T09:10:17.754Z,15.08
2022-11-23T09:12:59.816Z,15.28
2022-11-23T09:15:31.808Z,15.86
2022-11-23T09:18:03.196Z,16.62
2022-11-23T09:20:33.929Z,15.74
2022-11-23T09:23:14.217Z,16.75
2022-11-23T09:25:50.125Z,17.41
2022-11-23T09:28:22.636Z,16.90
2022-11-23T09:30:51.769Z,15.15
2022-11-23T09:33:25.278Z,15.70
2022-11-23T09:36:05.354Z,17.68
2022-11-23T09:38:55.512Z,18.30
2022-11-23T09:41:42.890Z,18.51
2022-11-23T09:44:27.528Z,19.18
2022-11-23T09:47:07.925Z,19.49
2022-11-23T09:49:53.733Z,20.40
2022-11-23T09:52:45.036Z,21.43
2022-11-23T09:55:33.087Z,22.41
2022-11-23T09:58:21.334Z,21.36
2022-11-23T10:01:15.291Z,20.96
2022-11-23T10:03:54.431Z,24.03
2022-11-23T10:06:37.284Z,23.40
2022-11-23T10:09:26.877Z,22.74
2022-11-23T10:12:20.436Z,20.41
2022-11-23T10:14:58.874Z,16.50
2022-11-23T10:17:52.315Z,15.38
2022-11-23T10:20:32.650Z,16.05
2022-11-23T10:23:16.221Z,17.05
2022-11-23T10:26:03.274Z,22.38
2022-11-23T10:28:42.505Z,23.55
2022-11-23T10:31:23.881Z,25.22
2022-11-23T10:34:00.965Z,23.09
2022-11-23T10:36:30.515Z,20.45
2022-11-23T10:39:23.192Z,21.71
2022-11-23T10:41:55.517Z,19.18
2022-11-23T10:44:30.001Z,22.52
2022-11-23T10:47:03.434Z,23.90
2022-11-23T10:49:42.887Z,19.09
2022-11-23T10:52:32.870Z,21.07
2022-11-23T10:55:09.785Z,27.01
2022-11-23T11:00:35.774Z,24.99
2022-11-23T11:06:25.499Z,27.95
2022-11-23T11:09:10.774Z,29.85
2022-11-23T11:12:05.470Z,29.32
2022-11-23T11:14:43.580Z,24.98
2022-11-23T11:17:28.764Z,26.47
2022-11-23T11:20:10.083Z,23.80
2022-11-23T11:22:47.715Z,23.78
2022-11-23T11:25:37.795Z,27.32
2022-11-23T11:28:36.796Z,29.05
2022-11-23T11:31:23.146Z,30.11
2022-11-23T11:34:24.972Z,31.40
2022-11-23T11:37:02.104Z,28.71
2022-11-23T11:39:44.722Z,28.83
2022-11-23T11:42:28.147Z,26.89
2022-11-23T11:45:04.423Z,31.45
2022-11-23T11:47:48.776Z,25.75
2022-11-23T11:50:28.604Z,28.80
2022-11-23T11:53:11.515Z,26.94
2022-11-23T11:55:57.677Z,29.94
2022-11-23T11:58:27.000Z,32.21
2022-11-23T12:04:20.942Z,21.95
2022-11-23T12:07:03.209Z,22.66
2022-11-23T12:09:39.941Z,20.74
2022-11-23T12:12:30.021Z,22.05
2022-11-23T12:15:40.990Z,19.16
2022-11-23T12:18:20.422Z,18.61
2022-11-23T12:21:08.756Z,25.70
2022-11-23T12:24:01.577Z,23.61
2022-11-23T12:26:40.612Z,21.84
2022-11-23T12:29:20.483Z,23.10
2022-11-23T12:32:13.995Z,23.62
2022-11-23T12:34:44.162Z,22.46
2022-11-23T12:37:32.012Z,17.35
2022-11-23T12:40:12.522Z,20.42
2022-11-23T12:42:57.801Z,21.28
2022-11-23T12:45:33.996Z,20.48
2022-11-23T12:48:21.748Z,22.05
2022-11-23T12:51:05.595Z,20.45
2022-11-23T12:54:03.461Z,20.16
2022-11-23T12:56:34.925Z,18.24
2022-11-23T12:59:11.989Z,19.56
2022-11-23T13:01:51.637Z,20.08
2022-11-23T13:04:28.846Z,21.01
2022-11-23T13:07:28.847Z,21.37
2022-11-23T13:10:08.107Z,21.52
2022-11-23T13:12:47.251Z,22.26
2022-11-23T13:15:20.066Z,23.26
2022-11-23T13:17:53.394Z,27.62
2022-11-23T13:20:49.073Z,29.52
2022-11-23T13:23:25.674Z,26.35
2022-11-23T13:26:14.518Z,26.83
2022-11-23T13:28:59.210Z,26.18
2022-11-23T13:31:34.026Z,24.22
2022-11-23T13:34:28.603Z,24.23
2022-11-23T13:37:12.984Z,25.15
2022-11-23T13:39:54.696Z,24.98
2022-11-23T13:42:23.157Z,24.47
2022-11-23T13:45:23.840Z,24.57
2022-11-23T13:48:04.495Z,22.58
2022-11-23T13:50:55.349Z,23.21
2022-11-23T13:53:40.402Z,23.27
2022-11-23T13:56:24.787Z,22.43
2022-11-23T13:58:59.641Z,21.60
2022-11-23T14:01:39.887Z,22.22
2022-11-23T14:04:18.594Z,21.62
2022-11-23T14:06:54.995Z,22.40
2022-11-23T14:09:33.111Z,20.89
2022-11-23T14:12:12.557Z,21.18
2022-11-23T14:14:50.757Z,21.51
2022-11-23T14:17:26.234Z,22.10
2022-11-23T14:20:05.674Z,21.83
2022-11-23T14:22:42.069Z,21.55
2022-11-23T14:27:45.564Z,21.40
2022-11-23T14:28:48.862Z,21.26
2022-11-23T14:31:28.054Z,21.41
2022-11-23T14:34:16.293Z,21.68
2022-11-23T14:36:56.307Z,20.68
2022-11-23T14:39:44.062Z,21.97
2022-11-23T14:42:22.975Z,24.08
2022-11-23T14:45:06.443Z,25.07
2022-11-23T14:47:55.272Z,25.64
2022-11-23T14:50:32.992Z,26.80
2022-11-23T14:53:13.451Z,27.03
2022-11-23T14:56:03.090Z,28.09
2022-11-23T14:58:45.842Z,27.50
2022-11-23T15:01:25.995Z,26.76
2022-11-23T15:04:07.534Z,26.13
2022-11-23T15:06:50.690Z,26.58
2022-11-23T15:09:31.422Z,25.79
2022-11-23T15:12:27.624Z,24.93
2022-11-23T15:15:09.437Z,24.95
2022-11-23T15:17:58.828Z,25.04
2022-11-23T15:21:43.396Z,24.49
2022-11-23T15:24:36.466Z,22.52
2022-11-23T15:27:19.523Z,22.22
2022-11-23T15:30:00.568Z,20.57
2022-11-23T15:32:41.023Z,19.98
2022-11-23T15:35:20.300Z,19.75
2022-11-23T15:37:57.897Z,18.78
2022-11-23T15:40:39.354Z,18.74
2022-11-23T15:43:17.200Z,18.99
2022-11-23T15:45:53.991Z,18.12
2022-11-23T15:48:37.225Z,17.44
2022-11-23T15:51:24.191Z,17.29
2022-11-23T15:54:00.917Z,17.29
2022-11-23T15:56:41.047Z,17.26
2022-11-23T15:59:21.385Z,17.09
2022-11-23T16:01:49.668Z,16.97
2022-11-23T16:04:38.422Z,16.46
2022-11-23T16:07:18.389Z,16.12
2022-11-23T16:10:03.796Z,16.08
2022-11-23T16:12:35.682Z,15.96
2022-11-23T16:15:25.074Z,15.71
2022-11-23T16:18:11.061Z,15.69
2022-11-23T16:20:54.155Z,16.05
2022-11-23T16:23:38.953Z,15.88
2022-11-23T16:26:18.355Z,15.50
2022-11-23T16:29:01.022Z,15.73
2022-11-23T16:31:54.762Z,15.67
2022-11-23T16:34:39.482Z,15.39
2022-11-23T16:37:13.862Z,14.94
2022-11-23T16:39:57.129Z,15.17
2022-11-23T16:42:55.918Z,15.48
2022-11-23T16:45:30.326Z,15.44
2022-11-23T16:50:49.882Z,15.18
2022-11-23T16:53:19.947Z,15.38
2022-11-23T16:55:56.128Z,15.30
2022-11-23T16:58:45.489Z,15.11
2022-11-23T17:01:24.693Z,15.05
2022-11-23T17:04:02.718Z,14.57
2022-11-23T17:06:33.147Z,14.74
2022-11-23T17:09:08.101Z,14.55
2022-11-23T17:11:49.284Z,14.65
2022-11-23T17:14:22.129Z,15.05
2022-11-23T17:16:57.504Z,14.96
2022-11-23T17:19:32.681Z,15.11
2022-11-23T17:22:12.481Z,15.08
2022-11-23T17:25:00.776Z,14.96
2022-11-23T17:27:41.309Z,15.13
2022-11-23T17:30:21.824Z,15.23
2022-11-23T17:32:54.911Z,15.12
2022-11-23T17:35:23.459Z,15.26
2022-11-23T17:37:53.559Z,15.30
2022-11-23T17:40:24.941Z,15.34
2022-11-23T17:46:02.864Z,15.60
2022-11-23T17:48:43.334Z,15.88
2022-11-23T17:51:58.598Z,16.21
2022-11-23T17:54:32.790Z,13.33
2022-11-23T17:57:08.480Z,14.63
2022-11-23T17:59:39.519Z,15.76
2022-11-23T18:02:18.775Z,15.79
2022-11-23T18:04:49.683Z,15.19
2022-11-23T18:07:29.889Z,15.00
2022-11-23T18:10:05.126Z,15.03
2022-11-23T18:12:35.428Z,15.12
2022-11-23T18:15:16.905Z,14.88
2022-11-23T18:18:04.351Z,14.93
2022-11-23T18:20:38.376Z,14.90
2022-11-23T18:23:30.398Z,14.90
2022-11-23T18:26:25.240Z,15.03
2022-11-23T18:29:07.175Z,15.14
2022-11-23T18:31:36.676Z,14.95
2022-11-23T18:34:20.468Z,14.55
2022-11-23T18:36:52.936Z,14.25
2022-11-23T18:39:23.605Z,14.30
2022-11-23T18:41:53.103Z,14.23
2022-11-23T18:44:35.097Z,14.26
2022-11-23T18:47:06.414Z,14.39
2022-11-23T18:49:38.631Z,14.38
2022-11-23T18:52:17.138Z,14.71
2022-11-23T18:54:50.118Z,14.50
2022-11-23T18:57:25.084Z,14.75
2022-11-23T19:00:03.764Z,14.75
2022-11-23T19:02:51.931Z,14.30
2022-11-23T19:05:30.396Z,14.47
2022-11-23T19:08:06.660Z,14.38
2022-11-23T19:10:54.004Z,14.03
2022-11-23T19:13:48.445Z,14.02
2022-11-23T19:16:27.671Z,14.22
2022-11-23T19:19:02.725Z,14.36
2022-11-23T19:21:39.551Z,14.36
2022-11-23T19:24:19.955Z,14.79
2022-11-23T19:26:58.882Z,15.00
2022-11-23T19:29:30.336Z,15.12
2022-11-23T19:31:57.788Z,15.74
2022-11-23T19:34:25.134Z,15.75
2022-11-23T19:37:21.188Z,12.82
2022-11-23T19:39:55.962Z,15.17
2022-11-23T19:42:30.135Z,15.21
2022-11-23T19:45:02.108Z,15.84
2022-11-23T19:47:34.925Z,16.08
2022-11-23T19:53:12.722Z,16.61
2022-11-23T19:55:46.601Z,16.98
2022-11-23T19:58:21.924Z,16.11
2022-11-23T20:00:52.377Z,16.07
2022-11-23T20:03:35.637Z,15.72
2022-11-23T20:06:25.021Z,16.00
2022-11-23T20:09:02.029Z,15.85
2022-11-23T20:11:34.450Z,15.80
2022-11-23T20:14:09.540Z,15.89
2022-11-23T20:17:00.598Z,16.05
2022-11-23T20:19:39.679Z,16.06
2022-11-23T20:22:19.818Z,15.96
2022-11-23T20:28:05.422Z,15.72
2022-11-23T20:30:42.848Z,16.71
2022-11-23T20:33:18.302Z,16.10
2022-11-23T20:35:58.690Z,16.00
2022-11-23T20:38:30.343Z,16.09
2022-11-23T20:41:16.379Z,15.86
2022-11-23T20:44:05.835Z,15.66
2022-11-23T20:47:01.659Z,15.74
2022-11-23T20:49:50.393Z,16.04
2022-11-23T20:52:23.301Z,16.06
2022-11-23T20:55:04.317Z,16.29
2022-11-23T20:57:46.432Z,16.23
2022-11-23T21:00:25.128Z,15.98
2022-11-23T21:03:15.546Z,16.24
2022-11-23T21:05:50.297Z,16.08
2022-11-23T21:08:31.633Z,15.94
2022-11-23T21:11:41.922Z,16.17
2022-11-23T21:14:23.957Z,16.44
2022-11-23T21:17:00.248Z,16.58
2022-11-23T21:19:48.756Z,16.80
2022-11-23T21:22:35.685Z,16.49
2022-11-23T21:25:11.060Z,16.01
2022-11-23T21:27:47.784Z,15.97
2022-11-23T21:30:22.110Z,16.55
2022-11-23T21:33:18.326Z,16.08
2022-11-23T21:35:45.488Z,16.02
2022-11-23T21:38:21.807Z,16.06
2022-11-23T21:41:17.966Z,16.05
2022-11-23T21:43:58.589Z,15.79
2022-11-23T21:46:31.201Z,16.04
2022-11-23T21:49:11.540Z,15.69
2022-11-23T21:51:46.544Z,15.88
2022-11-23T21:54:26.171Z,15.95
2022-11-23T21:57:07.110Z,15.86
2022-11-23T21:59:39.717Z,15.49
2022-11-23T22:02:18.940Z,15.72
2022-11-23T22:05:02.832Z,15.84
2022-11-23T22:07:47.383Z,15.47
2022-11-23T22:10:29.207Z,15.88
2022-11-23T22:13:00.743Z,16.10
2022-11-23T22:16:04.431Z,15.78
2022-11-23T22:18:58.696Z,16.37
2022-11-23T22:21:48.129Z,16.19
2022-11-23T22:24:37.536Z,16.72
2022-11-23T22:27:05.456Z,17.20
2022-11-23T22:29:44.729Z,17.48
2022-11-23T22:32:36.315Z,16.87
2022-11-23T22:35:22.681Z,16.81
2022-11-23T22:38:00.715Z,16.26
2022-11-23T22:40:33.482Z,16.59
2022-11-23T22:43:06.476Z,16.36
2022-11-23T22:45:47.884Z,15.48
2022-11-23T22:48:23.854Z,15.75
2022-11-23T22:51:04.143Z,16.08
2022-11-23T22:53:37.317Z,15.78
2022-11-23T22:56:20.263Z,15.40
2022-11-23T22:58:50.444Z,15.16
2022-11-23T23:01:27.053Z,15.21
2022-11-23T23:04:15.114Z,15.47
2022-11-23T23:06:47.000Z,15.61
2022-11-23T23:09:17.558Z,15.86
2022-11-23T23:13:07.808Z,16.04
2022-11-23T23:15:42.706Z,15.80
2022-11-23T23:21:27.105Z,15.31
2022-11-23T23:24:07.365Z,15.34
2022-11-23T23:26:51.643Z,15.22
2022-11-23T23:29:25.513Z,14.87
2022-11-23T23:32:01.305Z,14.38
2022-11-23T23:34:38.912Z,13.81
2022-11-23T23:37:15.490Z,13.54
2022-11-23T23:39:52.356Z,13.52
2022-11-23T23:42:30.956Z,13.51
2022-11-23T23:45:12.050Z,13.54
2022-11-23T23:47:44.588Z,14.12
2022-11-23T23:50:16.232Z,14.51
2022-11-23T23:52:44.746Z,14.10
2022-11-23T23:55:20.126Z,14.08
2022-11-23T23:57:57.567Z,14.50
